sensor_id;sensor_type;location;lat;lon;timestamp;P1;durP1;ratioP1;P2;durP2;ratioP2
44197;SDS011;30157;55.512;37.764;2023-12-20T00:00:40;4.63;;;2.97;;
44197;SDS011;30157;55.512;37.764;2023-12-20T00:03:06;5.00;;;3.00;;
44197;SDS011;30157;55.512;37.764;2023-12-20T00:05:32;8.25;;;3.53;;
44197;SDS011;30157;55.512;37.764;2023-12-20T00:07:58;5.53;;;3.30;;
44197;SDS011;30157;55.512;37.764;2023-12-20T00:10:24;4.72;;;2.75;;
44197;SDS011;30157;55.512;37.764;2023-12-20T00:12:50;5.22;;;2.58;;
44197;SDS011;30157;55.512;37.764;2023-12-20T00:15:16;4.72;;;2.92;;
44197;SDS011;30157;55.512;37.764;2023-12-20T00:17:41;4.25;;;2.97;;
44197;SDS011;30157;55.512;37.764;2023-12-20T00:20:07;4.00;;;2.90;;
44197;SDS011;30157;55.512;37.764;2023-12-20T00:22:33;4.40;;;2.90;;
44197;SDS011;30157;55.512;37.764;2023-12-20T00:24:59;4.80;;;2.97;;
44197;SDS011;30157;55.512;37.764;2023-12-20T00:27:24;5.40;;;3.30;;
44197;SDS011;30157;55.512;37.764;2023-12-20T00:29:50;3.97;;;2.67;;
44197;SDS011;30157;55.512;37.764;2023-12-20T00:32:16;4.78;;;3.20;;
44197;SDS011;30157;55.512;37.764;2023-12-20T00:34:42;4.20;;;3.03;;
44197;SDS011;30157;55.512;37.764;2023-12-20T00:37:08;4.65;;;3.20;;
44197;SDS011;30157;55.512;37.764;2023-12-20T00:39:34;4.90;;;3.08;;
44197;SDS011;30157;55.512;37.764;2023-12-20T00:42:00;5.22;;;2.90;;
44197;SDS011;30157;55.512;37.764;2023-12-20T00:44:25;5.70;;;3.78;;
44197;SDS011;30157;55.512;37.764;2023-12-20T00:46:51;6.07;;;3.50;;
44197;SDS011;30157;55.512;37.764;2023-12-20T00:49:17;6.75;;;3.95;;
44197;SDS011;30157;55.512;37.764;2023-12-20T00:51:43;7.00;;;4.10;;
44197;SDS011;30157;55.512;37.764;2023-12-20T00:54:08;5.97;;;4.30;;
44197;SDS011;30157;55.512;37.764;2023-12-20T00:56:35;7.70;;;3.97;;
44197;SDS011;30157;55.512;37.764;2023-12-20T00:59:00;7.43;;;4.60;;
44197;SDS011;30157;55.512;37.764;2023-12-20T01:01:26;7.00;;;4.13;;
44197;SDS011;30157;55.512;37.764;2023-12-20T01:03:52;7.10;;;4.65;;
44197;SDS011;30157;55.512;37.764;2023-12-20T01:06:18;9.43;;;5.45;;
44197;SDS011;30157;55.512;37.764;2023-12-20T01:08:44;10.38;;;4.90;;
44197;SDS011;30157;55.512;37.764;2023-12-20T01:11:10;6.93;;;4.13;;
44197;SDS011;30157;55.512;37.764;2023-12-20T01:13:36;7.38;;;4.47;;
44197;SDS011;30157;55.512;37.764;2023-12-20T01:16:02;6.45;;;3.70;;
44197;SDS011;30157;55.512;37.764;2023-12-20T01:18:28;4.10;;;2.88;;
44197;SDS011;30157;55.512;37.764;2023-12-20T01:20:53;3.67;;;2.47;;
44197;SDS011;30157;55.512;37.764;2023-12-20T01:23:19;3.63;;;2.50;;
44197;SDS011;30157;55.512;37.764;2023-12-20T01:25:45;3.47;;;2.30;;
44197;SDS011;30157;55.512;37.764;2023-12-20T01:28:11;4.05;;;2.15;;
44197;SDS011;30157;55.512;37.764;2023-12-20T01:30:37;3.40;;;1.90;;
44197;SDS011;30157;55.512;37.764;2023-12-20T01:33:03;7.63;;;2.30;;
44197;SDS011;30157;55.512;37.764;2023-12-20T01:35:28;3.22;;;1.52;;
44197;SDS011;30157;55.512;37.764;2023-12-20T01:37:54;4.47;;;1.60;;
44197;SDS011;30157;55.512;37.764;2023-12-20T01:40:23;2.83;;;1.60;;
44197;SDS011;30157;55.512;37.764;2023-12-20T01:45:47;1.95;;;1.10;;
44197;SDS011;30157;55.512;37.764;2023-12-20T01:48:13;2.50;;;1.27;;
44197;SDS011;30157;55.512;37.764;2023-12-20T01:50:41;3.03;;;1.10;;
44197;SDS011;30157;55.512;37.764;2023-12-20T01:53:09;2.70;;;1.10;;
44197;SDS011;30157;55.512;37.764;2023-12-20T01:55:39;3.80;;;1.30;;
44197;SDS011;30157;55.512;37.764;2023-12-20T01:58:06;2.67;;;1.10;;
44197;SDS011;30157;55.512;37.764;2023-12-20T02:00:34;4.43;;;1.63;;
44197;SDS011;30157;55.512;37.764;2023-12-20T02:03:01;4.75;;;1.15;;
44197;SDS011;30157;55.512;37.764;2023-12-20T02:05:32;1.98;;;1.02;;
44197;SDS011;30157;55.512;37.764;2023-12-20T02:07:59;2.63;;;1.10;;
44197;SDS011;30157;55.512;37.764;2023-12-20T02:10:25;3.13;;;0.90;;
44197;SDS011;30157;55.512;37.764;2023-12-20T02:12:52;4.45;;;1.30;;
44197;SDS011;30157;55.512;37.764;2023-12-20T02:15:18;5.00;;;1.30;;
44197;SDS011;30157;55.512;37.764;2023-12-20T02:17:44;4.20;;;1.42;;
44197;SDS011;30157;55.512;37.764;2023-12-20T02:20:12;1.73;;;1.13;;
44197;SDS011;30157;55.512;37.764;2023-12-20T02:22:37;1.50;;;1.10;;
44197;SDS011;30157;55.512;37.764;2023-12-20T02:25:03;2.63;;;1.25;;
44197;SDS011;30157;55.512;37.764;2023-12-20T02:27:30;1.40;;;1.00;;
44197;SDS011;30157;55.512;37.764;2023-12-20T02:29:56;2.95;;;1.10;;
44197;SDS011;30157;55.512;37.764;2023-12-20T02:32:22;4.05;;;1.10;;
44197;SDS011;30157;55.512;37.764;2023-12-20T02:34:51;1.98;;;1.13;;
44197;SDS011;30157;55.512;37.764;2023-12-20T02:37:17;4.13;;;1.17;;
44197;SDS011;30157;55.512;37.764;2023-12-20T02:39:43;2.15;;;1.10;;
44197;SDS011;30157;55.512;37.764;2023-12-20T02:42:09;3.60;;;1.70;;
44197;SDS011;30157;55.512;37.764;2023-12-20T02:44:34;2.78;;;1.90;;
44197;SDS011;30157;55.512;37.764;2023-12-20T02:47:01;4.05;;;2.30;;
44197;SDS011;30157;55.512;37.764;2023-12-20T02:49:27;3.92;;;2.35;;
44197;SDS011;30157;55.512;37.764;2023-12-20T02:51:53;5.43;;;3.30;;
44197;SDS011;30157;55.512;37.764;2023-12-20T02:54:19;6.35;;;3.35;;
44197;SDS011;30157;55.512;37.764;2023-12-20T02:56:45;7.95;;;4.20;;
44197;SDS011;30157;55.512;37.764;2023-12-20T02:59:10;8.10;;;4.50;;
44197;SDS011;30157;55.512;37.764;2023-12-20T03:01:41;12.48;;;5.93;;
44197;SDS011;30157;55.512;37.764;2023-12-20T03:04:08;12.65;;;5.97;;
44197;SDS011;30157;55.512;37.764;2023-12-20T03:06:34;10.98;;;6.55;;
44197;SDS011;30157;55.512;37.764;2023-12-20T03:08:59;11.35;;;6.90;;
44197;SDS011;30157;55.512;37.764;2023-12-20T03:11:28;10.48;;;6.43;;
44197;SDS011;30157;55.512;37.764;2023-12-20T03:13:54;12.70;;;7.32;;
44197;SDS011;30157;55.512;37.764;2023-12-20T03:16:20;12.30;;;7.18;;
44197;SDS011;30157;55.512;37.764;2023-12-20T03:18:46;12.98;;;7.90;;
44197;SDS011;30157;55.512;37.764;2023-12-20T03:21:12;11.02;;;6.30;;
44197;SDS011;30157;55.512;37.764;2023-12-20T03:23:38;8.32;;;5.18;;
44197;SDS011;30157;55.512;37.764;2023-12-20T03:26:06;12.85;;;7.35;;
44197;SDS011;30157;55.512;37.764;2023-12-20T03:28:33;12.52;;;6.70;;
44197;SDS011;30157;55.512;37.764;2023-12-20T03:30:59;13.00;;;6.95;;
44197;SDS011;30157;55.512;37.764;2023-12-20T03:33:25;11.10;;;6.60;;
44197;SDS011;30157;55.512;37.764;2023-12-20T03:35:50;11.95;;;6.25;;
44197;SDS011;30157;55.512;37.764;2023-12-20T03:38:16;9.25;;;5.75;;
44197;SDS011;30157;55.512;37.764;2023-12-20T03:40:42;8.05;;;5.00;;
44197;SDS011;30157;55.512;37.764;2023-12-20T03:43:08;9.80;;;5.00;;
44197;SDS011;30157;55.512;37.764;2023-12-20T03:45:33;10.73;;;5.07;;
44197;SDS011;30157;55.512;37.764;2023-12-20T03:47:59;10.95;;;5.20;;
44197;SDS011;30157;55.512;37.764;2023-12-20T03:50:25;6.78;;;4.57;;
44197;SDS011;30157;55.512;37.764;2023-12-20T03:52:51;10.27;;;5.40;;
44197;SDS011;30157;55.512;37.764;2023-12-20T03:55:18;9.18;;;4.95;;
44197;SDS011;30157;55.512;37.764;2023-12-20T03:57:44;7.93;;;5.13;;
44197;SDS011;30157;55.512;37.764;2023-12-20T04:00:10;7.65;;;4.05;;
44197;SDS011;30157;55.512;37.764;2023-12-20T04:02:40;6.45;;;4.60;;
44197;SDS011;30157;55.512;37.764;2023-12-20T04:05:07;10.43;;;5.75;;
44197;SDS011;30157;55.512;37.764;2023-12-20T04:07:33;8.93;;;5.43;;
44197;SDS011;30157;55.512;37.764;2023-12-20T04:09:59;8.68;;;5.18;;
44197;SDS011;30157;55.512;37.764;2023-12-20T04:12:26;6.28;;;4.30;;
44197;SDS011;30157;55.512;37.764;2023-12-20T04:14:52;7.63;;;4.80;;
44197;SDS011;30157;55.512;37.764;2023-12-20T04:17:18;8.70;;;4.50;;
44197;SDS011;30157;55.512;37.764;2023-12-20T04:19:44;7.90;;;5.40;;
44197;SDS011;30157;55.512;37.764;2023-12-20T04:22:10;10.88;;;5.53;;
44197;SDS011;30157;55.512;37.764;2023-12-20T04:24:35;8.95;;;5.90;;
44197;SDS011;30157;55.512;37.764;2023-12-20T04:27:01;8.30;;;5.20;;
44197;SDS011;30157;55.512;37.764;2023-12-20T04:29:28;9.73;;;5.50;;
44197;SDS011;30157;55.512;37.764;2023-12-20T04:31:53;10.18;;;6.07;;
44197;SDS011;30157;55.512;37.764;2023-12-20T04:34:19;9.57;;;5.72;;
44197;SDS011;30157;55.512;37.764;2023-12-20T04:36:46;10.55;;;6.43;;
44197;SDS011;30157;55.512;37.764;2023-12-20T04:39:12;9.07;;;5.82;;
44197;SDS011;30157;55.512;37.764;2023-12-20T04:41:39;10.15;;;5.70;;
44197;SDS011;30157;55.512;37.764;2023-12-20T04:44:05;7.07;;;5.07;;
44197;SDS011;30157;55.512;37.764;2023-12-20T04:46:31;8.27;;;4.65;;
44197;SDS011;30157;55.512;37.764;2023-12-20T04:48:57;7.47;;;4.97;;
44197;SDS011;30157;55.512;37.764;2023-12-20T04:51:23;7.22;;;4.70;;
44197;SDS011;30157;55.512;37.764;2023-12-20T04:53:48;8.68;;;4.90;;
44197;SDS011;30157;55.512;37.764;2023-12-20T04:56:14;6.63;;;4.72;;
44197;SDS011;30157;55.512;37.764;2023-12-20T04:58:40;8.68;;;4.80;;
44197;SDS011;30157;55.512;37.764;2023-12-20T05:01:06;7.53;;;4.97;;
44197;SDS011;30157;55.512;37.764;2023-12-20T05:03:32;7.72;;;4.80;;
44197;SDS011;30157;55.512;37.764;2023-12-20T05:05:58;6.85;;;4.10;;
44197;SDS011;30157;55.512;37.764;2023-12-20T05:08:23;8.00;;;4.40;;
44197;SDS011;30157;55.512;37.764;2023-12-20T05:10:50;9.30;;;4.57;;
44197;SDS011;30157;55.512;37.764;2023-12-20T05:13:20;7.28;;;4.60;;
44197;SDS011;30157;55.512;37.764;2023-12-20T05:15:46;8.38;;;4.70;;
44197;SDS011;30157;55.512;37.764;2023-12-20T05:18:12;7.63;;;4.80;;
44197;SDS011;30157;55.512;37.764;2023-12-20T05:20:38;7.05;;;4.60;;
44197;SDS011;30157;55.512;37.764;2023-12-20T05:23:04;7.95;;;4.90;;
44197;SDS011;30157;55.512;37.764;2023-12-20T05:25:30;7.85;;;5.00;;
44197;SDS011;30157;55.512;37.764;2023-12-20T05:27:56;7.68;;;4.45;;
44197;SDS011;30157;55.512;37.764;2023-12-20T05:30:22;7.72;;;4.88;;
44197;SDS011;30157;55.512;37.764;2023-12-20T05:32:48;6.80;;;4.63;;
44197;SDS011;30157;55.512;37.764;2023-12-20T05:35:14;10.20;;;4.93;;
44197;SDS011;30157;55.512;37.764;2023-12-20T05:37:41;6.50;;;4.40;;
44197;SDS011;30157;55.512;37.764;2023-12-20T05:40:07;7.47;;;4.43;;
44197;SDS011;30157;55.512;37.764;2023-12-20T05:42:36;9.18;;;4.93;;
44197;SDS011;30157;55.512;37.764;2023-12-20T05:45:03;8.90;;;4.70;;
44197;SDS011;30157;55.512;37.764;2023-12-20T05:47:31;8.30;;;4.65;;
44197;SDS011;30157;55.512;37.764;2023-12-20T05:49:57;8.65;;;4.70;;
44197;SDS011;30157;55.512;37.764;2023-12-20T05:52:24;7.03;;;4.45;;
44197;SDS011;30157;55.512;37.764;2023-12-20T05:54:50;6.93;;;5.22;;
44197;SDS011;30157;55.512;37.764;2023-12-20T05:57:16;7.30;;;4.68;;
44197;SDS011;30157;55.512;37.764;2023-12-20T05:59:41;9.27;;;4.63;;
44197;SDS011;30157;55.512;37.764;2023-12-20T06:02:07;6.85;;;4.13;;
44197;SDS011;30157;55.512;37.764;2023-12-20T06:04:33;8.32;;;5.22;;
44197;SDS011;30157;55.512;37.764;2023-12-20T06:06:59;8.38;;;4.60;;
44197;SDS011;30157;55.512;37.764;2023-12-20T06:09:26;7.75;;;4.57;;
44197;SDS011;30157;55.512;37.764;2023-12-20T06:11:52;9.00;;;5.10;;
44197;SDS011;30157;55.512;37.764;2023-12-20T06:14:18;9.00;;;4.88;;
44197;SDS011;30157;55.512;37.764;2023-12-20T06:16:45;8.52;;;4.68;;
44197;SDS011;30157;55.512;37.764;2023-12-20T06:19:11;7.90;;;4.85;;
44197;SDS011;30157;55.512;37.764;2023-12-20T06:21:37;9.13;;;4.25;;
44197;SDS011;30157;55.512;37.764;2023-12-20T06:24:03;9.02;;;4.90;;
44197;SDS011;30157;55.512;37.764;2023-12-20T06:26:29;7.80;;;4.75;;
44197;SDS011;30157;55.512;37.764;2023-12-20T06:28:55;10.25;;;5.35;;
44197;SDS011;30157;55.512;37.764;2023-12-20T06:31:21;7.55;;;4.72;;
44197;SDS011;30157;55.512;37.764;2023-12-20T06:33:46;7.15;;;4.75;;
44197;SDS011;30157;55.512;37.764;2023-12-20T06:36:13;8.85;;;5.10;;
44197;SDS011;30157;55.512;37.764;2023-12-20T06:38:39;6.55;;;4.40;;
44197;SDS011;30157;55.512;37.764;2023-12-20T06:41:05;5.68;;;3.72;;
44197;SDS011;30157;55.512;37.764;2023-12-20T06:43:31;9.60;;;4.05;;
44197;SDS011;30157;55.512;37.764;2023-12-20T06:46:00;6.88;;;3.80;;
44197;SDS011;30157;55.512;37.764;2023-12-20T06:48:26;6.88;;;3.85;;
44197;SDS011;30157;55.512;37.764;2023-12-20T06:50:51;5.68;;;2.80;;
44197;SDS011;30157;55.512;37.764;2023-12-20T06:53:18;6.78;;;3.13;;
44197;SDS011;30157;55.512;37.764;2023-12-20T06:55:43;4.60;;;3.10;;
44197;SDS011;30157;55.512;37.764;2023-12-20T06:58:09;4.65;;;2.97;;
44197;SDS011;30157;55.512;37.764;2023-12-20T07:00:35;6.47;;;3.55;;
44197;SDS011;30157;55.512;37.764;2023-12-20T07:03:01;5.30;;;3.30;;
44197;SDS011;30157;55.512;37.764;2023-12-20T07:05:27;6.05;;;3.53;;
44197;SDS011;30157;55.512;37.764;2023-12-20T07:07:52;6.10;;;3.38;;
44197;SDS011;30157;55.512;37.764;2023-12-20T07:10:18;6.88;;;4.00;;
44197;SDS011;30157;55.512;37.764;2023-12-20T07:12:46;6.60;;;4.15;;
44197;SDS011;30157;55.512;37.764;2023-12-20T07:15:14;5.25;;;4.10;;
44197;SDS011;30157;55.512;37.764;2023-12-20T07:17:39;8.98;;;4.35;;
44197;SDS011;30157;55.512;37.764;2023-12-20T07:20:05;6.45;;;3.95;;
44197;SDS011;30157;55.512;37.764;2023-12-20T07:22:35;7.55;;;4.00;;
44197;SDS011;30157;55.512;37.764;2023-12-20T07:25:00;8.00;;;3.72;;
44197;SDS011;30157;55.512;37.764;2023-12-20T07:27:26;6.22;;;3.88;;
44197;SDS011;30157;55.512;37.764;2023-12-20T07:29:52;6.40;;;3.90;;
44197;SDS011;30157;55.512;37.764;2023-12-20T07:32:18;7.05;;;3.95;;
44197;SDS011;30157;55.512;37.764;2023-12-20T07:34:44;7.25;;;3.63;;
44197;SDS011;30157;55.512;37.764;2023-12-20T07:37:10;6.22;;;3.88;;
44197;SDS011;30157;55.512;37.764;2023-12-20T07:39:39;8.25;;;3.95;;
44197;SDS011;30157;55.512;37.764;2023-12-20T07:42:05;6.10;;;3.65;;
44197;SDS011;30157;55.512;37.764;2023-12-20T07:44:32;7.28;;;3.00;;
44197;SDS011;30157;55.512;37.764;2023-12-20T07:46:57;6.15;;;3.40;;
44197;SDS011;30157;55.512;37.764;2023-12-20T07:49:23;5.50;;;4.05;;
44197;SDS011;30157;55.512;37.764;2023-12-20T07:51:49;5.40;;;3.65;;
44197;SDS011;30157;55.512;37.764;2023-12-20T07:54:15;5.05;;;3.50;;
44197;SDS011;30157;55.512;37.764;2023-12-20T07:56:41;7.38;;;4.50;;
44197;SDS011;30157;55.512;37.764;2023-12-20T07:59:07;7.25;;;4.20;;
44197;SDS011;30157;55.512;37.764;2023-12-20T08:01:33;10.38;;;4.32;;
44197;SDS011;30157;55.512;37.764;2023-12-20T08:03:59;6.60;;;4.28;;
44197;SDS011;30157;55.512;37.764;2023-12-20T08:06:24;8.15;;;4.80;;
44197;SDS011;30157;55.512;37.764;2023-12-20T08:08:50;5.57;;;3.60;;
44197;SDS011;30157;55.512;37.764;2023-12-20T08:11:16;6.25;;;4.03;;
44197;SDS011;30157;55.512;37.764;2023-12-20T08:13:42;6.25;;;3.50;;
44197;SDS011;30157;55.512;37.764;2023-12-20T08:16:08;6.25;;;3.55;;
44197;SDS011;30157;55.512;37.764;2023-12-20T08:18:34;5.32;;;3.90;;
44197;SDS011;30157;55.512;37.764;2023-12-20T08:21:00;6.35;;;4.43;;
44197;SDS011;30157;55.512;37.764;2023-12-20T08:23:27;7.65;;;4.10;;
44197;SDS011;30157;55.512;37.764;2023-12-20T08:25:52;7.38;;;4.32;;
44197;SDS011;30157;55.512;37.764;2023-12-20T08:28:18;7.30;;;4.05;;
44197;SDS011;30157;55.512;37.764;2023-12-20T08:30:44;9.15;;;4.63;;
44197;SDS011;30157;55.512;37.764;2023-12-20T08:33:10;11.10;;;5.53;;
44197;SDS011;30157;55.512;37.764;2023-12-20T08:35:39;9.00;;;5.40;;
44197;SDS011;30157;55.512;37.764;2023-12-20T08:38:05;10.77;;;4.80;;
44197;SDS011;30157;55.512;37.764;2023-12-20T08:40:31;8.05;;;4.70;;
44197;SDS011;30157;55.512;37.764;2023-12-20T08:42:57;7.20;;;4.80;;
44197;SDS011;30157;55.512;37.764;2023-12-20T08:45:22;8.60;;;5.28;;
44197;SDS011;30157;55.512;37.764;2023-12-20T08:47:48;8.73;;;4.60;;
44197;SDS011;30157;55.512;37.764;2023-12-20T08:50:14;8.55;;;4.43;;
44197;SDS011;30157;55.512;37.764;2023-12-20T08:52:40;7.43;;;5.10;;
44197;SDS011;30157;55.512;37.764;2023-12-20T08:55:06;9.02;;;5.22;;
44197;SDS011;30157;55.512;37.764;2023-12-20T08:57:32;8.20;;;5.00;;
44197;SDS011;30157;55.512;37.764;2023-12-20T08:59:59;8.48;;;5.10;;
44197;SDS011;30157;55.512;37.764;2023-12-20T09:02:24;8.73;;;5.60;;
44197;SDS011;30157;55.512;37.764;2023-12-20T09:04:50;6.43;;;4.60;;
44197;SDS011;30157;55.512;37.764;2023-12-20T09:07:22;8.45;;;5.32;;
44197;SDS011;30157;55.512;37.764;2023-12-20T09:09:49;7.63;;;4.97;;
44197;SDS011;30157;55.512;37.764;2023-12-20T09:12:16;8.43;;;4.57;;
44197;SDS011;30157;55.512;37.764;2023-12-20T09:14:44;9.43;;;5.65;;
44197;SDS011;30157;55.512;37.764;2023-12-20T09:17:10;9.23;;;5.57;;
44197;SDS011;30157;55.512;37.764;2023-12-20T09:19:37;8.13;;;5.00;;
44197;SDS011;30157;55.512;37.764;2023-12-20T09:22:04;7.25;;;4.70;;
44197;SDS011;30157;55.512;37.764;2023-12-20T09:24:31;9.05;;;5.38;;
44197;SDS011;30157;55.512;37.764;2023-12-20T09:26:57;7.97;;;5.40;;
44197;SDS011;30157;55.512;37.764;2023-12-20T09:29:22;8.15;;;4.75;;
44197;SDS011;30157;55.512;37.764;2023-12-20T09:31:50;8.00;;;5.13;;
44197;SDS011;30157;55.512;37.764;2023-12-20T09:34:16;6.47;;;4.85;;
44197;SDS011;30157;55.512;37.764;2023-12-20T09:36:44;7.22;;;4.15;;
44197;SDS011;30157;55.512;37.764;2023-12-20T09:39:16;8.32;;;5.57;;
44197;SDS011;30157;55.512;37.764;2023-12-20T09:41:49;7.45;;;4.75;;
44197;SDS011;30157;55.512;37.764;2023-12-20T09:44:25;8.55;;;4.68;;
44197;SDS011;30157;55.512;37.764;2023-12-20T09:46:51;6.65;;;4.32;;
44197;SDS011;30157;55.512;37.764;2023-12-20T09:49:20;7.22;;;4.78;;
44197;SDS011;30157;55.512;37.764;2023-12-20T09:51:47;8.27;;;4.85;;
44197;SDS011;30157;55.512;37.764;2023-12-20T09:54:16;6.40;;;4.57;;
44197;SDS011;30157;55.512;37.764;2023-12-20T09:56:46;6.45;;;4.18;;
44197;SDS011;30157;55.512;37.764;2023-12-20T09:59:13;7.63;;;4.22;;
44197;SDS011;30157;55.512;37.764;2023-12-20T10:01:40;6.88;;;4.13;;
44197;SDS011;30157;55.512;37.764;2023-12-20T10:04:06;6.45;;;4.50;;
44197;SDS011;30157;55.512;37.764;2023-12-20T10:06:35;7.30;;;4.88;;
44197;SDS011;30157;55.512;37.764;2023-12-20T10:09:04;5.88;;;4.40;;
44197;SDS011;30157;55.512;37.764;2023-12-20T10:11:31;5.43;;;4.28;;
44197;SDS011;30157;55.512;37.764;2023-12-20T10:14:00;7.45;;;4.40;;
44197;SDS011;30157;55.512;37.764;2023-12-20T10:16:29;7.20;;;4.82;;
44197;SDS011;30157;55.512;37.764;2023-12-20T10:18:55;5.93;;;4.50;;
44197;SDS011;30157;55.512;37.764;2023-12-20T10:21:22;7.57;;;4.78;;
44197;SDS011;30157;55.512;37.764;2023-12-20T10:23:48;5.63;;;3.92;;
44197;SDS011;30157;55.512;37.764;2023-12-20T10:26:20;6.47;;;3.97;;
44197;SDS011;30157;55.512;37.764;2023-12-20T10:28:50;5.72;;;3.50;;
44197;SDS011;30157;55.512;37.764;2023-12-20T10:31:28;6.60;;;4.15;;
44197;SDS011;30157;55.512;37.764;2023-12-20T10:33:58;5.47;;;3.63;;
44197;SDS011;30157;55.512;37.764;2023-12-20T10:36:33;6.85;;;4.40;;
44197;SDS011;30157;55.512;37.764;2023-12-20T10:39:01;6.85;;;4.50;;
44197;SDS011;30157;55.512;37.764;2023-12-20T10:41:31;7.70;;;4.38;;
44197;SDS011;30157;55.512;37.764;2023-12-20T10:43:59;6.05;;;4.20;;
44197;SDS011;30157;55.512;37.764;2023-12-20T10:46:29;7.63;;;4.22;;
44197;SDS011;30157;55.512;37.764;2023-12-20T10:48:58;5.30;;;3.80;;
44197;SDS011;30157;55.512;37.764;2023-12-20T10:51:38;7.28;;;4.35;;
44197;SDS011;30157;55.512;37.764;2023-12-20T10:54:04;7.72;;;4.53;;
44197;SDS011;30157;55.512;37.764;2023-12-20T10:56:32;6.28;;;4.30;;
44197;SDS011;30157;55.512;37.764;2023-12-20T10:58:58;6.70;;;4.43;;
44197;SDS011;30157;55.512;37.764;2023-12-20T11:01:29;6.55;;;4.53;;
44197;SDS011;30157;55.512;37.764;2023-12-20T11:03:55;5.80;;;4.03;;
44197;SDS011;30157;55.512;37.764;2023-12-20T11:06:36;9.57;;;4.40;;
44197;SDS011;30157;55.512;37.764;2023-12-20T11:14:23;7.00;;;4.43;;
44197;SDS011;30157;55.512;37.764;2023-12-20T11:22:19;6.97;;;3.85;;
44197;SDS011;30157;55.512;37.764;2023-12-20T11:24:46;6.68;;;4.57;;
44197;SDS011;30157;55.512;37.764;2023-12-20T11:27:13;7.18;;;4.57;;
44197;SDS011;30157;55.512;37.764;2023-12-20T11:29:40;8.30;;;5.50;;
44197;SDS011;30157;55.512;37.764;2023-12-20T11:34:55;8.90;;;5.57;;
44197;SDS011;30157;55.512;37.764;2023-12-20T11:37:21;7.65;;;5.00;;
44197;SDS011;30157;55.512;37.764;2023-12-20T11:39:56;9.70;;;5.57;;
44197;SDS011;30157;55.512;37.764;2023-12-20T11:42:33;9.90;;;5.43;;
44197;SDS011;30157;55.512;37.764;2023-12-20T11:45:04;7.53;;;5.05;;
44197;SDS011;30157;55.512;37.764;2023-12-20T11:47:31;7.93;;;4.55;;
44197;SDS011;30157;55.512;37.764;2023-12-20T11:49:57;10.70;;;5.50;;
44197;SDS011;30157;55.512;37.764;2023-12-20T11:52:25;8.32;;;5.18;;
44197;SDS011;30157;55.512;37.764;2023-12-20T11:54:51;8.52;;;5.22;;
44197;SDS011;30157;55.512;37.764;2023-12-20T11:57:17;8.38;;;5.35;;
44197;SDS011;30157;55.512;37.764;2023-12-20T11:59:43;11.20;;;5.93;;
44197;SDS011;30157;55.512;37.764;2023-12-20T12:02:11;11.27;;;6.60;;
44197;SDS011;30157;55.512;37.764;2023-12-20T12:04:37;10.07;;;5.95;;
44197;SDS011;30157;55.512;37.764;2023-12-20T12:07:03;11.65;;;6.80;;
44197;SDS011;30157;55.512;37.764;2023-12-20T12:09:29;10.98;;;6.60;;
44197;SDS011;30157;55.512;37.764;2023-12-20T12:11:54;9.25;;;6.00;;
44197;SDS011;30157;55.512;37.764;2023-12-20T12:14:20;10.43;;;6.32;;
44197;SDS011;30157;55.512;37.764;2023-12-20T12:16:46;11.88;;;6.47;;
44197;SDS011;30157;55.512;37.764;2023-12-20T12:19:24;8.93;;;6.05;;
44197;SDS011;30157;55.512;37.764;2023-12-20T12:21:51;10.57;;;5.95;;
44197;SDS011;30157;55.512;37.764;2023-12-20T12:24:42;11.90;;;5.88;;
44197;SDS011;30157;55.512;37.764;2023-12-20T12:27:10;12.60;;;6.50;;
44197;SDS011;30157;55.512;37.764;2023-12-20T12:29:37;10.35;;;5.22;;
44197;SDS011;30157;55.512;37.764;2023-12-20T12:32:07;11.05;;;6.18;;
44197;SDS011;30157;55.512;37.764;2023-12-20T12:34:34;10.43;;;5.85;;
44197;SDS011;30157;55.512;37.764;2023-12-20T12:37:00;7.38;;;4.68;;
44197;SDS011;30157;55.512;37.764;2023-12-20T12:39:26;9.55;;;5.57;;
44197;SDS011;30157;55.512;37.764;2023-12-20T12:41:52;8.02;;;5.00;;
44197;SDS011;30157;55.512;37.764;2023-12-20T12:44:18;8.65;;;5.40;;
44197;SDS011;30157;55.512;37.764;2023-12-20T12:46:45;9.70;;;5.70;;
44197;SDS011;30157;55.512;37.764;2023-12-20T12:49:11;7.80;;;4.80;;
44197;SDS011;30157;55.512;37.764;2023-12-20T12:51:37;7.97;;;4.85;;
44197;SDS011;30157;55.512;37.764;2023-12-20T12:54:03;7.68;;;4.60;;
44197;SDS011;30157;55.512;37.764;2023-12-20T12:56:29;8.27;;;4.53;;
44197;SDS011;30157;55.512;37.764;2023-12-20T12:58:55;8.18;;;4.55;;
44197;SDS011;30157;55.512;37.764;2023-12-20T13:01:21;8.82;;;4.88;;
44197;SDS011;30157;55.512;37.764;2023-12-20T13:03:47;8.23;;;5.07;;
44197;SDS011;30157;55.512;37.764;2023-12-20T13:06:12;7.18;;;4.60;;
44197;SDS011;30157;55.512;37.764;2023-12-20T13:08:38;7.97;;;4.80;;
44197;SDS011;30157;55.512;37.764;2023-12-20T13:11:04;8.25;;;4.70;;
44197;SDS011;30157;55.512;37.764;2023-12-20T13:13:30;5.72;;;4.03;;
44197;SDS011;30157;55.512;37.764;2023-12-20T13:15:56;6.35;;;3.90;;
44197;SDS011;30157;55.512;37.764;2023-12-20T13:18:22;5.97;;;3.72;;
44197;SDS011;30157;55.512;37.764;2023-12-20T13:20:49;6.65;;;3.85;;
44197;SDS011;30157;55.512;37.764;2023-12-20T13:23:14;5.07;;;3.58;;
44197;SDS011;30157;55.512;37.764;2023-12-20T13:25:41;5.30;;;3.42;;
44197;SDS011;30157;55.512;37.764;2023-12-20T13:28:07;7.10;;;3.72;;
44197;SDS011;30157;55.512;37.764;2023-12-20T13:30:34;4.72;;;3.10;;
44197;SDS011;30157;55.512;37.764;2023-12-20T13:32:59;7.00;;;4.00;;
44197;SDS011;30157;55.512;37.764;2023-12-20T13:35:25;6.05;;;3.55;;
44197;SDS011;30157;55.512;37.764;2023-12-20T13:37:51;5.78;;;3.67;;
44197;SDS011;30157;55.512;37.764;2023-12-20T13:40:17;6.45;;;3.97;;
44197;SDS011;30157;55.512;37.764;2023-12-20T13:42:44;5.75;;;3.35;;
44197;SDS011;30157;55.512;37.764;2023-12-20T13:45:10;6.18;;;4.03;;
44197;SDS011;30157;55.512;37.764;2023-12-20T13:47:36;4.75;;;3.38;;
44197;SDS011;30157;55.512;37.764;2023-12-20T13:50:03;5.75;;;3.70;;
44197;SDS011;30157;55.512;37.764;2023-12-20T13:52:29;7.68;;;4.28;;
44197;SDS011;30157;55.512;37.764;2023-12-20T13:54:55;5.10;;;3.40;;
44197;SDS011;30157;55.512;37.764;2023-12-20T13:57:21;5.82;;;3.72;;
44197;SDS011;30157;55.512;37.764;2023-12-20T13:59:47;5.80;;;3.90;;
44197;SDS011;30157;55.512;37.764;2023-12-20T14:02:13;8.82;;;3.80;;
44197;SDS011;30157;55.512;37.764;2023-12-20T14:04:39;7.07;;;4.05;;
44197;SDS011;30157;55.512;37.764;2023-12-20T14:07:05;7.60;;;4.57;;
44197;SDS011;30157;55.512;37.764;2023-12-20T14:09:33;7.93;;;3.60;;
44197;SDS011;30157;55.512;37.764;2023-12-20T14:11:59;6.40;;;4.32;;
44197;SDS011;30157;55.512;37.764;2023-12-20T14:14:25;5.20;;;3.80;;
44197;SDS011;30157;55.512;37.764;2023-12-20T14:16:51;5.22;;;3.92;;
44197;SDS011;30157;55.512;37.764;2023-12-20T14:19:17;6.07;;;4.70;;
44197;SDS011;30157;55.512;37.764;2023-12-20T14:21:43;6.65;;;4.30;;
44197;SDS011;30157;55.512;37.764;2023-12-20T14:24:14;6.68;;;4.13;;
44197;SDS011;30157;55.512;37.764;2023-12-20T14:26:40;7.20;;;4.60;;
44197;SDS011;30157;55.512;37.764;2023-12-20T14:29:07;9.00;;;4.50;;
44197;SDS011;30157;55.512;37.764;2023-12-20T14:31:33;6.60;;;3.92;;
44197;SDS011;30157;55.512;37.764;2023-12-20T14:33:59;5.40;;;3.92;;
44197;SDS011;30157;55.512;37.764;2023-12-20T14:36:29;5.30;;;3.80;;
44197;SDS011;30157;55.512;37.764;2023-12-20T14:38:56;8.18;;;5.00;;
44197;SDS011;30157;55.512;37.764;2023-12-20T14:41:22;7.20;;;4.60;;
44197;SDS011;30157;55.512;37.764;2023-12-20T14:43:50;7.13;;;4.90;;
44197;SDS011;30157;55.512;37.764;2023-12-20T14:46:17;8.00;;;5.05;;